createdAt,value
2022-10-01T00:00:08.829Z,79.00
2022-10-01T00:01:41.913Z,79.00
2022-10-01T00:03:13.648Z,79.30
2022-10-01T00:04:45.251Z,79.40
2022-10-01T00:06:22.109Z,79.50
2022-10-01T00:07:53.712Z,79.50
2022-10-01T00:09:26.604Z,79.50
2022-10-01T00:11:01.516Z,79.50
2022-10-01T00:12:33.907Z,79.80
2022-10-01T00:14:06.192Z,79.90
2022-10-01T00:15:41.310Z,79.80
2022-10-01T00:17:12.905Z,80.00
2022-10-01T00:18:46.724Z,80.20
2022-10-01T00:20:18.717Z,80.20
2022-10-01T00:21:50.324Z,80.30
2022-10-01T00:23:22.377Z,80.40
2022-10-01T00:24:53.985Z,80.60
2022-10-01T00:26:28.504Z,80.60
2022-10-01T00:28:00.358Z,80.80
2022-10-01T00:29:32.328Z,80.70
2022-10-01T00:31:06.105Z,81.00
2022-10-01T00:32:38.904Z,81.10
2022-10-01T00:34:13.667Z,80.90
2022-10-01T00:35:45.939Z,80.90
2022-10-01T00:37:18.041Z,80.80
2022-10-01T00:38:49.801Z,80.80
2022-10-01T00:40:22.240Z,80.90
2022-10-01T00:41:54.511Z,80.90
2022-10-01T00:43:29.175Z,81.00
2022-10-01T00:45:02.098Z,81.00
2022-10-01T00:46:41.445Z,81.10
2022-10-01T00:48:13.270Z,81.20
2022-10-01T00:49:47.137Z,81.20
2022-10-01T00:51:19.284Z,81.10
2022-10-01T00:52:55.321Z,81.30
2022-10-01T00:54:33.144Z,81.60
2022-10-01T00:56:07.063Z,81.40
2022-10-01T00:57:40.514Z,81.30
2022-10-01T00:59:12.742Z,81.30
2022-10-01T01:00:45.017Z,81.30
2022-10-01T01:02:16.721Z,81.40
2022-10-01T01:03:48.809Z,81.50
2022-10-01T01:05:21.505Z,81.50
2022-10-01T01:06:57.579Z,81.40
2022-10-01T01:08:29.392Z,81.60
2022-10-01T01:10:02.451Z,81.70
2022-10-01T01:11:57.278Z,81.80
2022-10-01T01:13:38.659Z,81.50
2022-10-01T01:15:29.993Z,81.60
2022-10-01T01:17:34.983Z,81.60
2022-10-01T01:19:32.846Z,81.70
2022-10-01T01:21:37.071Z,81.80
2022-10-01T01:23:17.215Z,81.90
2022-10-01T01:25:17.991Z,81.80
2022-10-01T01:26:57.796Z,81.70
2022-10-01T01:28:37.307Z,81.80
2022-10-01T01:30:12.180Z,81.90
2022-10-01T01:31:46.726Z,81.90
2022-10-01T01:33:21.907Z,81.80
2022-10-01T01:34:56.711Z,81.90
2022-10-01T01:36:37.867Z,82.00
2022-10-01T01:38:14.976Z,82.00
2022-10-01T01:39:51.851Z,82.20
2022-10-01T01:41:29.429Z,82.10
2022-10-01T01:43:08.082Z,82.10
2022-10-01T01:44:43.982Z,82.10
2022-10-01T01:46:18.849Z,82.40
2022-10-01T01:47:55.268Z,82.30
2022-10-01T01:49:26.956Z,82.40
2022-10-01T01:51:11.204Z,82.40
2022-10-01T01:52:43.184Z,82.50
2022-10-01T01:54:14.942Z,82.40
2022-10-01T01:55:49.215Z,82.40
2022-10-01T01:57:21.586Z,82.30
2022-10-01T01:58:58.232Z,82.50
2022-10-01T02:00:29.915Z,82.70
2022-10-01T02:02:02.251Z,82.50
2022-10-01T02:03:35.175Z,82.60
2022-10-01T02:05:11.851Z,82.90
2022-10-01T02:06:58.220Z,82.80
2022-10-01T02:08:49.580Z,82.90
2022-10-01T02:10:48.891Z,83.00
2022-10-01T02:12:48.291Z,82.90
2022-10-01T02:14:36.684Z,83.10
2022-10-01T02:16:42.069Z,83.30
2022-10-01T02:18:15.703Z,83.40
2022-10-01T02:20:06.347Z,83.40
2022-10-01T02:21:47.203Z,83.40
2022-10-01T02:23:28.809Z,83.40
2022-10-01T02:25:03.132Z,83.50
2022-10-01T02:26:36.978Z,83.60
2022-10-01T02:28:13.172Z,83.60
2022-10-01T02:29:45.587Z,83.70
2022-10-01T02:31:19.017Z,83.80
2022-10-01T02:32:51.903Z,83.70
2022-10-01T02:34:28.876Z,84.20
2022-10-01T02:36:03.791Z,84.20
2022-10-01T02:37:38.952Z,84.10
2022-10-01T02:39:12.925Z,84.20
2022-10-01T02:40:46.240Z,84.10
2022-10-01T02:42:20.207Z,84.10
2022-10-01T02:44:09.327Z,84.30
2022-10-01T02:45:44.739Z,84.30
2022-10-01T02:47:33.151Z,84.20
2022-10-01T02:49:05.219Z,84.30
2022-10-01T02:50:49.275Z,84.50
2022-10-01T02:52:33.908Z,84.60
2022-10-01T02:54:19.243Z,84.30
2022-10-01T02:55:51.827Z,84.40
2022-10-01T02:57:24.293Z,84.30
2022-10-01T02:58:56.027Z,84.40
2022-10-01T03:00:28.520Z,84.30
2022-10-01T03:02:00.266Z,84.60
2022-10-01T03:03:32.336Z,84.40
2022-10-01T03:05:04.888Z,84.60
2022-10-01T03:06:36.524Z,84.50
2022-10-01T03:08:08.288Z,84.60
2022-10-01T03:09:39.917Z,84.70
2022-10-01T03:11:11.551Z,84.80
2022-10-01T03:12:46.331Z,84.70
2022-10-01T03:14:18.127Z,84.80
2022-10-01T03:15:49.837Z,84.70
2022-10-01T03:17:21.576Z,84.70
2022-10-01T03:18:53.272Z,84.90
2022-10-01T03:20:25.403Z,84.80
2022-10-01T03:21:57.039Z,84.90
2022-10-01T03:23:28.688Z,84.90
2022-10-01T03:25:00.319Z,85.00
2022-10-01T03:26:31.967Z,84.80
2022-10-01T03:28:03.644Z,84.80
2022-10-01T03:29:35.290Z,84.90
2022-10-01T03:31:08.961Z,84.80
2022-10-01T03:32:40.737Z,85.10
2022-10-01T03:34:13.219Z,85.10
2022-10-01T03:35:44.838Z,85.10
2022-10-01T03:37:16.540Z,85.00
2022-10-01T03:38:48.140Z,85.20
2022-10-01T03:40:19.893Z,85.40
2022-10-01T03:41:51.496Z,85.30
2022-10-01T03:43:23.289Z,85.30
2022-10-01T03:44:55.816Z,85.10
2022-10-01T03:46:27.472Z,85.30
2022-10-01T03:47:59.101Z,85.40
2022-10-01T03:49:30.707Z,85.50
2022-10-01T03:51:02.323Z,85.40
2022-10-01T03:52:34.011Z,85.30
2022-10-01T03:54:07.139Z,85.30
2022-10-01T03:55:38.767Z,85.40
2022-10-01T03:57:10.396Z,85.40
2022-10-01T03:58:42.299Z,85.50
2022-10-01T04:00:14.004Z,85.70
2022-10-01T04:01:45.664Z,85.60
2022-10-01T04:03:18.343Z,85.60
2022-10-01T04:04:50.960Z,85.60
2022-10-01T04:06:22.613Z,85.80
2022-10-01T04:07:54.263Z,85.90
2022-10-01T04:09:25.922Z,86.00
2022-10-01T04:10:57.602Z,86.00
2022-10-01T04:12:29.267Z,85.90
2022-10-01T04:14:00.911Z,85.90
2022-10-01T04:15:32.867Z,85.80
2022-10-01T04:17:04.467Z,86.00
2022-10-01T04:18:36.181Z,86.00
2022-10-01T04:20:08.496Z,86.00
2022-10-01T04:21:40.108Z,86.00
2022-10-01T04:23:11.808Z,86.00
2022-10-01T04:24:43.435Z,86.00
2022-10-01T04:26:15.204Z,86.20
2022-10-01T04:27:59.496Z,86.10
2022-10-01T04:29:31.199Z,86.30
2022-10-01T04:31:22.127Z,86.30
2022-10-01T04:32:54.316Z,86.20
2022-10-01T04:34:45.931Z,86.50
2022-10-01T04:36:17.832Z,86.50
2022-10-01T04:38:06.978Z,86.60
2022-10-01T04:39:38.581Z,86.60
2022-10-01T04:41:10.344Z,86.70
2022-10-01T04:42:43.521Z,86.50
2022-10-01T04:44:15.128Z,86.60
2022-10-01T04:45:46.760Z,86.80
2022-10-01T04:47:18.540Z,86.70
2022-10-01T04:48:50.250Z,87.00
2022-10-01T04:50:24.442Z,87.10
2022-10-01T04:51:56.080Z,87.30
2022-10-01T04:53:28.225Z,87.30
2022-10-01T04:54:59.877Z,87.40
2022-10-01T04:56:31.504Z,87.30
2022-10-01T04:58:03.182Z,87.40
2022-10-01T04:59:34.828Z,87.60
2022-10-01T05:01:06.588Z,87.60
2022-10-01T05:02:38.413Z,87.60
2022-10-01T05:04:10.188Z,87.70
2022-10-01T05:05:41.825Z,87.80
2022-10-01T05:07:14.357Z,87.80
2022-10-01T05:08:45.980Z,87.90
2022-10-01T05:10:20.188Z,88.00
2022-10-01T05:11:51.904Z,87.80
2022-10-01T05:13:23.613Z,87.90
2022-10-01T05:14:55.826Z,88.10
2022-10-01T05:16:27.565Z,88.00
2022-10-01T05:17:59.433Z,88.00
2022-10-01T05:19:31.666Z,87.90
2022-10-01T05:21:07.657Z,88.10
2022-10-01T05:22:39.656Z,88.30
2022-10-01T05:24:11.722Z,88.30
2022-10-01T05:25:46.606Z,88.20
2022-10-01T05:27:18.977Z,88.20
2022-10-01T05:28:51.072Z,88.40
2022-10-01T05:30:25.381Z,88.40
2022-10-01T05:31:58.262Z,88.60
2022-10-01T05:33:31.014Z,88.60
2022-10-01T05:35:04.033Z,88.60
2022-10-01T05:36:35.827Z,88.70
2022-10-01T05:38:08.835Z,88.80
2022-10-01T05:39:40.530Z,89.00
2022-10-01T05:41:12.145Z,89.00
2022-10-01T05:42:47.122Z,88.90
2022-10-01T05:44:19.290Z,89.00
2022-10-01T05:45:51.314Z,89.10
2022-10-01T05:47:23.141Z,89.20
2022-10-01T05:48:54.777Z,89.20
2022-10-01T05:50:31.327Z,89.10
2022-10-01T05:52:02.996Z,89.20
2022-10-01T05:53:38.063Z,89.20
2022-10-01T05:55:11.061Z,89.20
2022-10-01T05:56:42.775Z,89.40
2022-10-01T05:58:14.834Z,89.30
2022-10-01T05:59:46.570Z,89.20
2022-10-01T06:01:18.180Z,89.20
2022-10-01T06:02:52.023Z,89.30
2022-10-01T06:04:23.720Z,89.50
2022-10-01T06:05:55.958Z,89.40
2022-10-01T06:07:31.402Z,89.40
2022-10-01T06:09:03.122Z,89.50
2022-10-01T06:10:36.671Z,89.60
2022-10-01T06:12:09.678Z,89.70
2022-10-01T06:13:46.467Z,89.60
2022-10-01T06:15:18.570Z,89.40
2022-10-01T06:16:53.914Z,89.60
2022-10-01T06:18:27.171Z,89.50
2022-10-01T06:19:58.806Z,89.50
2022-10-01T06:21:31.730Z,89.50
2022-10-01T06:23:09.989Z,89.50
2022-10-01T06:24:41.614Z,89.60
2022-10-01T06:26:13.222Z,89.90
2022-10-01T06:27:44.915Z,89.90
2022-10-01T06:29:16.563Z,89.80
2022-10-01T06:30:49.615Z,89.70
2022-10-01T06:32:21.259Z,89.80
2022-10-01T06:33:52.888Z,89.80
2022-10-01T06:35:24.536Z,89.90
2022-10-01T06:36:56.319Z,89.90
2022-10-01T06:38:27.979Z,90.10
2022-10-01T06:39:59.843Z,90.10
2022-10-01T06:41:31.685Z,90.00
2022-10-01T06:43:03.917Z,89.90
2022-10-01T06:44:35.848Z,90.00
2022-10-01T06:46:07.592Z,90.10
2022-10-01T06:47:39.308Z,90.10
2022-10-01T06:49:10.888Z,90.20
2022-10-01T06:50:44.260Z,90.20
2022-10-01T06:52:34.367Z,90.40
2022-10-01T06:54:06.077Z,90.60
2022-10-01T06:55:38.610Z,90.60
2022-10-01T06:57:10.639Z,90.50
2022-10-01T06:58:43.209Z,90.70
2022-10-01T07:00:15.084Z,90.70
2022-10-01T07:01:56.387Z,90.80
2022-10-01T07:03:28.682Z,91.10
2022-10-01T07:05:00.454Z,90.90
2022-10-01T07:06:32.458Z,90.90
2022-10-01T07:08:04.864Z,90.80
2022-10-01T07:09:36.509Z,91.10
2022-10-01T07:11:08.200Z,91.10
2022-10-01T07:12:39.889Z,91.00
2022-10-01T07:14:11.728Z,91.10
2022-10-01T07:15:44.269Z,90.90
2022-10-01T07:17:16.289Z,91.20
2022-10-01T07:18:47.932Z,91.10
2022-10-01T07:20:21.291Z,91.40
2022-10-01T07:21:52.924Z,91.30
2022-10-01T07:23:24.578Z,91.30
2022-10-01T07:24:56.189Z,91.50
2022-10-01T07:26:27.813Z,91.40
2022-10-01T07:28:02.307Z,91.40
2022-10-01T07:29:34.019Z,91.80
2022-10-01T07:31:11.162Z,91.60
2022-10-01T07:32:45.965Z,91.70
2022-10-01T07:34:17.657Z,91.50
2022-10-01T07:35:49.496Z,91.90
2022-10-01T07:37:21.569Z,91.80
2022-10-01T07:38:53.258Z,92.00
2022-10-01T07:40:27.377Z,91.80
2022-10-01T07:41:58.986Z,92.00
2022-10-01T07:43:32.173Z,91.90
2022-10-01T07:45:06.500Z,91.90
2022-10-01T07:46:38.894Z,91.90
2022-10-01T07:48:10.517Z,91.90
2022-10-01T07:49:42.157Z,92.20
2022-10-01T07:51:13.781Z,92.00
2022-10-01T07:52:45.494Z,92.30
2022-10-01T07:54:17.097Z,92.40
2022-10-01T07:55:48.819Z,92.80
2022-10-01T07:57:20.482Z,92.30
2022-10-01T07:58:56.626Z,92.20
2022-10-01T08:00:30.094Z,92.80
2022-10-01T08:02:01.841Z,93.30
2022-10-01T08:03:33.562Z,92.70
2022-10-01T08:05:17.827Z,93.00
2022-10-01T08:06:49.482Z,93.30
2022-10-01T08:08:21.446Z,93.30
2022-10-01T08:09:53.193Z,93.50
2022-10-01T08:11:25.059Z,93.80
2022-10-01T08:13:01.883Z,93.90
2022-10-01T08:14:33.539Z,93.90
2022-10-01T08:16:06.176Z,94.10
2022-10-01T08:17:39.022Z,93.80
2022-10-01T08:19:12.033Z,93.80
2022-10-01T08:20:44.181Z,93.60
2022-10-01T08:22:15.821Z,94.10
2022-10-01T08:23:47.506Z,94.30
2022-10-01T08:25:19.121Z,94.60
2022-10-01T08:26:57.601Z,94.50
2022-10-01T08:28:29.731Z,94.30
2022-10-01T08:30:01.451Z,94.30
2022-10-01T08:31:33.549Z,93.80
2022-10-01T08:33:06.203Z,93.90
2022-10-01T08:34:37.902Z,94.10
2022-10-01T08:36:09.678Z,93.80
2022-10-01T08:37:41.362Z,93.50
2022-10-01T08:39:14.701Z,93.80
2022-10-01T08:40:53.214Z,93.80
2022-10-01T08:42:46.230Z,93.70
2022-10-01T08:44:27.789Z,93.90
2022-10-01T08:46:14.529Z,94.30
2022-10-01T08:48:13.291Z,94.50
2022-10-01T08:49:54.557Z,94.50
2022-10-01T08:51:38.502Z,94.30
2022-10-01T08:53:24.935Z,93.90
2022-10-01T08:55:11.354Z,93.90
2022-10-01T08:56:46.456Z,94.00
2022-10-01T08:58:29.196Z,94.10
2022-10-01T09:00:07.643Z,93.70
2022-10-01T09:01:39.575Z,94.10
2022-10-01T09:03:14.755Z,94.60
2022-10-01T09:04:47.879Z,94.50
2022-10-01T09:06:25.751Z,94.20
2022-10-01T09:08:06.590Z,94.40
2022-10-01T09:10:00.232Z,94.60
2022-10-01T09:11:59.255Z,94.60
2022-10-01T09:13:59.756Z,94.30
2022-10-01T09:15:35.821Z,94.90
2022-10-01T09:17:21.388Z,94.80
2022-10-01T09:19:15.672Z,95.20
2022-10-01T09:20:58.763Z,95.20
2022-10-01T09:22:41.519Z,95.10
2022-10-01T09:24:16.460Z,95.00
2022-10-01T09:25:51.390Z,94.90
2022-10-01T09:27:28.054Z,95.40
2022-10-01T09:29:02.226Z,95.80
2022-10-01T09:30:36.407Z,96.10
2022-10-01T09:32:11.695Z,95.80
2022-10-01T09:33:52.896Z,96.00
2022-10-01T09:35:44.129Z,95.60
2022-10-01T09:37:25.872Z,95.40
2022-10-01T09:39:19.775Z,95.90
2022-10-01T09:40:56.551Z,95.90
2022-10-01T09:42:30.029Z,95.90
2022-10-01T09:44:02.755Z,95.70
2022-10-01T09:45:35.471Z,95.70
2022-10-01T09:47:18.114Z,96.10
2022-10-01T09:49:27.303Z,96.30
2022-10-01T09:51:12.875Z,96.10
2022-10-01T09:52:48.600Z,96.40
2022-10-01T09:54:20.430Z,96.40
2022-10-01T09:55:59.988Z,96.40
2022-10-01T09:57:44.870Z,96.60
2022-10-01T09:59:27.023Z,96.50
2022-10-01T10:00:59.927Z,96.70
2022-10-01T10:02:47.608Z,96.90
2022-10-01T10:04:23.645Z,97.30
2022-10-01T10:05:55.577Z,97.60
2022-10-01T10:07:28.467Z,97.60
2022-10-01T10:09:01.927Z,97.70
2022-10-01T10:10:36.807Z,97.50
2022-10-01T10:12:27.714Z,97.70
2022-10-01T10:14:02.271Z,97.80
2022-10-01T10:15:50.486Z,98.00
2022-10-01T10:17:22.983Z,98.10
2022-10-01T10:19:15.431Z,98.30
2022-10-01T10:20:53.821Z,98.50
2022-10-01T10:22:26.987Z,98.40
2022-10-01T10:24:07.292Z,98.50
2022-10-01T10:25:38.971Z,98.60
2022-10-01T10:27:36.920Z,98.70
2022-10-01T10:29:26.629Z,98.70
2022-10-01T10:30:58.441Z,98.60
2022-10-01T10:32:30.428Z,98.80
2022-10-01T10:34:18.427Z,99.00
2022-10-01T10:36:05.475Z,98.90
2022-10-01T10:37:38.039Z,98.80
2022-10-01T10:39:24.527Z,98.60
2022-10-01T10:40:57.568Z,98.60
2022-10-01T10:42:29.630Z,98.70
2022-10-01T10:44:04.804Z,98.70
2022-10-01T10:45:38.675Z,98.60
2022-10-01T10:47:14.681Z,98.70
2022-10-01T10:48:49.478Z,98.80
2022-10-01T10:50:33.945Z,98.80
2022-10-01T10:52:19.275Z,98.70
2022-10-01T10:53:51.065Z,98.60
2022-10-01T10:55:32.265Z,98.60
2022-10-01T10:57:21.075Z,98.50
2022-10-01T10:58:53.920Z,98.30
2022-10-01T11:00:26.433Z,98.40
2022-10-01T11:02:03.182Z,98.60
2022-10-01T11:03:37.977Z,98.60
2022-10-01T11:05:21.722Z,98.70
2022-10-01T11:07:00.975Z,99.10
2022-10-01T11:08:33.265Z,98.90
2022-10-01T11:10:27.733Z,99.20
2022-10-01T11:12:20.586Z,99.50
2022-10-01T11:14:23.775Z,99.60
2022-10-01T11:16:04.857Z,99.50
2022-10-01T11:18:32.961Z,99.40
2022-10-01T11:20:56.648Z,99.20
2022-10-01T11:22:40.125Z,99.30
2022-10-01T11:24:17.789Z,99.20
2022-10-01T11:26:18.004Z,99.20
2022-10-01T11:28:09.140Z,98.80
2022-10-01T11:30:09.447Z,98.60
2022-10-01T11:31:58.834Z,98.60
2022-10-01T11:34:04.248Z,98.70
2022-10-01T11:35:46.487Z,98.80
2022-10-01T11:37:42.901Z,98.80
2022-10-01T11:39:16.638Z,98.90
2022-10-01T11:40:54.553Z,98.70
2022-10-01T11:42:34.696Z,98.70
2022-10-01T11:44:12.428Z,98.40
2022-10-01T11:45:48.165Z,98.40
2022-10-01T11:47:29.980Z,98.30
2022-10-01T11:49:24.175Z,98.20
2022-10-01T11:51:02.003Z,98.20
2022-10-01T11:52:54.493Z,98.10
2022-10-01T11:54:31.100Z,98.20
2022-10-01T11:56:26.225Z,98.30
2022-10-01T11:58:42.618Z,98.10
2022-10-01T12:00:14.554Z,98.10
2022-10-01T12:02:02.837Z,98.10
2022-10-01T12:03:51.023Z,98.30
2022-10-01T12:05:28.432Z,98.20
2022-10-01T12:07:23.199Z,98.00
2022-10-01T12:09:20.710Z,98.00
2022-10-01T12:11:21.980Z,98.00
2022-10-01T12:13:07.328Z,98.00
2022-10-01T12:15:18.969Z,97.90
2022-10-01T12:17:00.660Z,97.80
2022-10-01T12:18:47.216Z,97.70
2022-10-01T12:20:35.803Z,97.70
2022-10-01T12:22:31.776Z,97.60
2022-10-01T12:24:31.540Z,97.60
2022-10-01T12:26:38.321Z,97.90
2022-10-01T12:28:35.013Z,97.80
2022-10-01T12:30:36.764Z,97.70
2022-10-01T12:32:22.024Z,97.90
2022-10-01T12:34:15.625Z,98.00
2022-10-01T12:36:20.008Z,98.20
2022-10-01T12:38:03.242Z,98.20
2022-10-01T12:39:54.049Z,98.10
2022-10-01T12:42:16.909Z,98.00
2022-10-01T12:44:04.800Z,97.90
2022-10-01T12:45:49.844Z,97.90
2022-10-01T12:47:38.154Z,97.80
2022-10-01T12:49:09.900Z,97.70
2022-10-01T12:50:59.972Z,97.90
2022-10-01T12:52:34.395Z,97.90
2022-10-01T12:54:30.872Z,98.00
2022-10-01T12:56:27.636Z,97.90
2022-10-01T12:58:35.987Z,97.80
2022-10-01T13:00:24.910Z,97.90
2022-10-01T13:02:30.264Z,97.80
2022-10-01T13:04:14.681Z,97.70
2022-10-01T13:05:55.133Z,97.70
2022-10-01T13:07:52.693Z,97.70
2022-10-01T13:09:56.016Z,97.60
2022-10-01T13:11:30.665Z,97.50
2022-10-01T13:13:40.044Z,97.50
2022-10-01T13:15:17.245Z,97.40
2022-10-01T13:17:00.576Z,97.40
2022-10-01T13:18:46.045Z,97.40
2022-10-01T13:20:42.426Z,97.20
2022-10-01T13:22:32.401Z,97.20
2022-10-01T13:24:16.420Z,97.40
2022-10-01T13:26:11.330Z,97.20
2022-10-01T13:27:50.113Z,97.00
2022-10-01T13:29:45.484Z,97.00
2022-10-01T13:31:19.268Z,97.10
2022-10-01T13:32:58.300Z,97.10
2022-10-01T13:34:41.949Z,97.00
2022-10-01T13:36:13.707Z,97.10
2022-10-01T13:37:45.385Z,97.00
2022-10-01T13:39:24.405Z,96.90
2022-10-01T13:41:04.506Z,96.90
2022-10-01T13:42:43.576Z,96.90
2022-10-01T13:44:35.091Z,96.80
2022-10-01T13:46:10.503Z,96.70
2022-10-01T13:47:42.247Z,96.70
2022-10-01T13:49:25.573Z,96.60
2022-10-01T13:51:06.650Z,96.60
2022-10-01T13:52:38.685Z,96.60
2022-10-01T13:54:47.334Z,96.30
2022-10-01T13:56:37.608Z,96.20
2022-10-01T13:58:30.713Z,96.20
2022-10-01T14:00:12.163Z,96.20
2022-10-01T14:01:43.830Z,96.20
2022-10-01T14:03:44.971Z,96.10
2022-10-01T14:05:22.990Z,96.10
2022-10-01T14:06:58.773Z,96.00
2022-10-01T14:08:51.036Z,96.10
2022-10-01T14:10:25.032Z,96.10
2022-10-01T14:12:23.885Z,96.00
2022-10-01T14:14:16.792Z,95.90
2022-10-01T14:16:02.615Z,95.90
2022-10-01T14:17:36.119Z,95.70
2022-10-01T14:19:09.260Z,95.70
2022-10-01T14:21:38.604Z,95.60
2022-10-01T14:23:16.451Z,95.60
2022-10-01T14:25:06.108Z,95.60
2022-10-01T14:27:13.350Z,95.60
2022-10-01T14:29:15.633Z,95.50
2022-10-01T14:31:20.491Z,95.40
2022-10-01T14:33:36.892Z,95.30
2022-10-01T14:35:08.568Z,95.40
2022-10-01T14:36:48.476Z,95.40
2022-10-01T14:38:22.047Z,95.30
2022-10-01T14:40:17.024Z,95.20
2022-10-01T14:41:51.949Z,95.20
2022-10-01T14:43:26.489Z,95.30
2022-10-01T14:44:58.343Z,95.30
2022-10-01T14:46:30.284Z,95.40
2022-10-01T14:48:09.435Z,95.20
2022-10-01T14:49:41.204Z,95.20
2022-10-01T14:51:27.951Z,95.20
2022-10-01T14:53:00.115Z,95.40
2022-10-01T14:54:56.643Z,95.20
2022-10-01T14:56:29.119Z,95.20
2022-10-01T14:58:01.138Z,95.00
2022-10-01T14:59:39.371Z,94.90
2022-10-01T15:01:29.764Z,94.90
2022-10-01T15:03:19.719Z,94.90
2022-10-01T15:04:56.919Z,94.90
2022-10-01T15:06:30.077Z,94.90
2022-10-01T15:08:19.146Z,94.80
2022-10-01T15:09:51.507Z,94.70
2022-10-01T15:11:28.947Z,94.70
2022-10-01T15:13:00.759Z,94.60
2022-10-01T15:14:32.885Z,94.50
2022-10-01T15:16:10.664Z,94.40
2022-10-01T15:17:42.904Z,94.30
2022-10-01T15:19:18.240Z,94.20
2022-10-01T15:21:06.226Z,94.10
2022-10-01T15:22:40.568Z,94.00
2022-10-01T15:24:45.585Z,94.00
2022-10-01T15:26:25.077Z,93.80
2022-10-01T15:27:57.063Z,93.70
2022-10-01T15:29:28.979Z,93.60
2022-10-01T15:31:05.878Z,93.50
2022-10-01T15:32:37.903Z,93.40
2022-10-01T15:34:15.877Z,93.20
2022-10-01T15:35:50.736Z,93.10
2022-10-01T15:37:33.580Z,92.90
2022-10-01T15:39:30.489Z,92.80
2022-10-01T15:41:29.994Z,92.60
2022-10-01T15:43:07.078Z,92.50
2022-10-01T15:44:47.250Z,91.90
2022-10-01T15:46:25.152Z,91.80
2022-10-01T15:47:58.039Z,91.60
2022-10-01T15:49:29.873Z,91.60
2022-10-01T15:51:27.490Z,91.60
2022-10-01T15:53:14.596Z,91.20
2022-10-01T15:54:47.409Z,91.30
2022-10-01T15:56:26.338Z,91.30
2022-10-01T15:58:09.739Z,91.20
2022-10-01T15:59:41.836Z,91.00
2022-10-01T16:01:22.336Z,90.90
2022-10-01T16:02:55.931Z,90.80
2022-10-01T16:04:27.887Z,90.70
2022-10-01T16:06:02.027Z,90.70
2022-10-01T16:07:35.439Z,90.60
2022-10-01T16:09:19.609Z,90.70
2022-10-01T16:11:13.643Z,90.50
2022-10-01T16:12:45.569Z,90.20
2022-10-01T16:14:29.045Z,90.20
2022-10-01T16:16:24.148Z,90.30
2022-10-01T16:17:56.979Z,90.20
2022-10-01T16:19:32.113Z,90.20
2022-10-01T16:21:05.657Z,90.10
2022-10-01T16:22:39.709Z,90.20
2022-10-01T16:24:29.199Z,90.10
2022-10-01T16:26:02.704Z,90.10
2022-10-01T16:27:45.191Z,90.30
2022-10-01T16:29:22.139Z,90.30
2022-10-01T16:30:53.900Z,90.20
2022-10-01T16:32:25.606Z,90.20
2022-10-01T16:33:57.395Z,90.20
2022-10-01T16:35:32.476Z,90.20
2022-10-01T16:37:06.720Z,90.20
2022-10-01T16:38:38.440Z,90.10
2022-10-01T16:40:15.780Z,90.10
2022-10-01T16:42:01.670Z,90.20
2022-10-01T16:43:40.745Z,90.20
2022-10-01T16:45:18.834Z,90.10
2022-10-01T16:46:50.466Z,90.00
2022-10-01T16:48:25.158Z,90.00
2022-10-01T16:49:56.834Z,89.80
2022-10-01T16:51:28.599Z,89.80
2022-10-01T16:53:01.225Z,89.50
2022-10-01T16:54:32.852Z,89.50
2022-10-01T16:56:04.616Z,89.20
2022-10-01T16:57:36.255Z,89.10
2022-10-01T16:59:07.891Z,88.60
2022-10-01T17:00:39.761Z,88.50
2022-10-01T17:02:13.475Z,88.30
2022-10-01T17:03:45.220Z,88.10
2022-10-01T17:05:32.223Z,87.40
2022-10-01T17:07:03.884Z,87.10
2022-10-01T17:08:35.566Z,87.30
2022-10-01T17:10:07.521Z,87.30
2022-10-01T17:11:39.707Z,86.80
2022-10-01T17:13:12.213Z,86.90
2022-10-01T17:14:43.907Z,86.10
2022-10-01T17:16:15.729Z,86.30
2022-10-01T17:17:47.396Z,86.00
2022-10-01T17:19:19.485Z,85.90
2022-10-01T17:20:51.141Z,85.90
2022-10-01T17:22:23.081Z,84.90
2022-10-01T17:23:54.927Z,85.40
2022-10-01T17:25:31.821Z,85.80
2022-10-01T17:27:03.515Z,85.00
2022-10-01T17:28:35.416Z,84.60
2022-10-01T17:30:07.532Z,83.50
2022-10-01T17:31:41.043Z,83.60
2022-10-01T17:33:13.677Z,83.40
2022-10-01T17:34:45.951Z,83.40
2022-10-01T17:36:17.636Z,84.00
2022-10-01T17:37:49.481Z,84.20
2022-10-01T17:39:21.090Z,83.30
2022-10-01T17:40:56.403Z,83.60
2022-10-01T17:42:28.772Z,83.90
2022-10-01T17:44:00.594Z,83.90
2022-10-01T17:45:32.318Z,84.00
2022-10-01T17:47:04.320Z,83.30
2022-10-01T17:48:35.992Z,83.40
2022-10-01T17:50:07.920Z,83.90
2022-10-01T17:51:39.560Z,83.70
2022-10-01T17:53:12.206Z,83.50
2022-10-01T17:54:43.983Z,83.70
2022-10-01T17:56:17.901Z,83.80
2022-10-01T17:57:50.180Z,83.80
2022-10-01T17:59:22.175Z,83.40
2022-10-01T18:00:54.067Z,83.90
2022-10-01T18:02:42.021Z,83.60
2022-10-01T18:04:17.383Z,83.80
2022-10-01T18:05:49.202Z,83.90
2022-10-01T18:07:20.925Z,84.20
2022-10-01T18:08:56.785Z,84.20
2022-10-01T18:10:28.688Z,84.20
2022-10-01T18:12:00.447Z,84.40
2022-10-01T18:13:33.111Z,84.30
2022-10-01T18:15:05.279Z,84.20
2022-10-01T18:16:37.984Z,84.30
2022-10-01T18:19:45.792Z,84.50
2022-10-01T18:20:02.899Z,84.50
2022-10-01T18:21:34.767Z,84.60
2022-10-01T18:23:06.663Z,84.70
2022-10-01T18:24:38.370Z,84.70
2022-10-01T18:26:10.585Z,84.90
2022-10-01T18:27:43.456Z,84.80
2022-10-01T18:29:23.983Z,84.90
2022-10-01T18:31:19.687Z,84.80
2022-10-01T18:32:56.723Z,84.90
2022-10-01T18:34:55.939Z,85.00
2022-10-01T18:36:42.578Z,84.90
2022-10-01T18:38:25.312Z,84.90
2022-10-01T18:40:04.437Z,84.80
2022-10-01T18:41:41.084Z,85.00
2022-10-01T18:43:26.084Z,84.90
2022-10-01T18:45:01.160Z,84.80
2022-10-01T18:46:49.508Z,84.80
2022-10-01T18:48:32.892Z,84.70
2022-10-01T18:50:24.567Z,84.90
2022-10-01T18:52:14.613Z,84.70
2022-10-01T18:53:54.815Z,84.70
2022-10-01T18:55:48.649Z,84.90
2022-10-01T18:57:32.884Z,85.00
2022-10-01T18:59:41.203Z,85.00
2022-10-01T19:01:22.161Z,85.20
2022-10-01T19:03:01.984Z,85.00
2022-10-01T19:05:03.948Z,84.90
2022-10-01T19:07:02.881Z,84.50
2022-10-01T19:08:40.449Z,85.00
2022-10-01T19:10:31.553Z,84.80
2022-10-01T19:12:47.961Z,84.70
2022-10-01T19:14:43.590Z,84.40
2022-10-01T19:16:54.638Z,84.70
2022-10-01T19:18:55.019Z,84.50
2022-10-01T19:20:52.892Z,84.80
2022-10-01T19:22:45.516Z,84.60
2022-10-01T19:24:46.568Z,84.80
2022-10-01T19:26:46.336Z,84.80
2022-10-01T19:28:36.743Z,84.90
2022-10-01T19:30:15.482Z,84.70
2022-10-01T19:31:54.112Z,84.90
2022-10-01T19:33:26.107Z,84.70
2022-10-01T19:35:05.079Z,84.90
2022-10-01T19:36:52.760Z,84.50
2022-10-01T19:38:33.622Z,84.70
2022-10-01T19:40:22.366Z,84.70
2022-10-01T19:42:18.463Z,84.80
2022-10-01T19:44:25.483Z,84.50
2022-10-01T19:46:21.301Z,84.70
2022-10-01T19:48:09.820Z,84.60
2022-10-01T19:49:42.508Z,84.70
2022-10-01T19:51:17.892Z,84.90
2022-10-01T19:52:52.405Z,84.50
2022-10-01T19:54:32.485Z,84.80
2022-10-01T19:56:05.017Z,84.70
2022-10-01T19:57:41.336Z,84.70
2022-10-01T19:59:21.255Z,84.70
2022-10-01T20:00:56.903Z,84.80
2022-10-01T20:02:45.637Z,84.90
2022-10-01T20:04:40.316Z,84.80
2022-10-01T20:06:21.225Z,84.80
2022-10-01T20:08:00.369Z,84.80
2022-10-01T20:09:40.208Z,84.90
2022-10-01T20:11:25.974Z,85.10
2022-10-01T20:13:26.733Z,84.90
2022-10-01T20:15:23.983Z,84.70
2022-10-01T20:16:55.689Z,84.70
2022-10-01T20:18:42.465Z,84.80
2022-10-01T20:20:37.190Z,84.80
2022-10-01T20:22:36.393Z,84.70
2022-10-01T20:24:37.401Z,84.90
2022-10-01T20:26:31.180Z,85.10
2022-10-01T20:28:32.303Z,84.70
2022-10-01T20:30:11.848Z,84.80
2022-10-01T20:32:03.105Z,84.70
2022-10-01T20:33:56.661Z,84.60
2022-10-01T20:35:56.406Z,84.70
2022-10-01T20:37:44.781Z,84.70
2022-10-01T20:39:27.893Z,84.70
2022-10-01T20:41:06.938Z,84.80
2022-10-01T20:42:46.517Z,84.60
2022-10-01T20:44:24.150Z,84.80
2022-10-01T20:45:56.827Z,84.80
2022-10-01T20:47:40.165Z,84.80
2022-10-01T20:49:24.433Z,84.70
2022-10-01T20:51:04.425Z,84.70
2022-10-01T20:53:03.908Z,84.80
2022-10-01T20:54:41.263Z,84.60
2022-10-01T20:56:23.861Z,84.70
2022-10-01T20:58:04.954Z,84.70
2022-10-01T20:59:42.995Z,84.70
2022-10-01T21:01:22.038Z,84.70
2022-10-01T21:03:23.290Z,84.70
2022-10-01T21:05:06.098Z,84.50
2022-10-01T21:06:42.857Z,84.80
2022-10-01T21:08:37.174Z,84.80
2022-10-01T21:10:40.186Z,84.70
2022-10-01T21:12:22.579Z,84.90
2022-10-01T21:14:05.574Z,84.80
2022-10-01T21:15:51.993Z,84.70
2022-10-01T21:17:31.110Z,84.60